Observations for TIREE ISLAND, United Kingdom (EGPU)

EGPU 130920Z 13035G45KT 9000 VCSH BKN023 06/02 Q1010
EGPU 130850Z 13035G45KT 9999 BKN026 06/01 Q1010 
EGPU 130820Z AUTO 13035G45KT 9999 BKN025/// BKN036/// 06/02 Q1010   
EGPU 130750Z AUTO 14036G46KT 9999 BKN027/// SCT036/// 07/02 Q1009   
EGPU 130720Z AUTO 13035KT 9999 BKN026/// BKN036/// 06/01 Q1009 RERA 
EGPU 130650Z AUTO 13035KT 9000 BKN025/// 06/02 Q1009 RERA   
EGPU 130620Z AUTO 13037G48KT 9999 -RA BKN024/// 06/02 Q1009 
EGPU 130550Z AUTO 13035KT 9999 BKN025/// 06/02 Q1009 RERA   
EGPU 130520Z AUTO 13036KT 9000 -RA BKN025/// BKN034/// 06/02 Q1009  
EGPU 130450Z AUTO 13037KT 9999 OVC027/// 06/01 Q1009
EGPU 130420Z AUTO 13035KT 9999 OVC023/// 06/02 Q1008
EGPU 130350Z AUTO 13034G45KT 100V160 9999 OVC022/// 06/02 Q1009 
EGPU 130320Z AUTO 12035G46KT 9999 OVC021/// 06/02 Q1009 
EGPU 130250Z AUTO 13034KT 9999 OVC021/// 06/02 Q1009
EGPU 130220Z AUTO 12035KT 9999 OVC020/// 06/02 Q1009
EGPU 130150Z AUTO 12035KT 9999 OVC019/// 06/03 Q1009
EGPU 130120Z 12034KT 9999 OVC018 07/03 Q1009
EGPU 130050Z 13035G45KT 100V160 9999 OVC018 07/04 Q1008 
EGPU 130020Z 13037G47KT 9999 BKN017 07/04 Q1009 
EGPU 122350Z AUTO 13036G46KT 8000 BKN016/// SCT024/// 08/05 Q1009 RERA  
EGPU 122320Z AUTO 13033KT 8000 OVC014/// 08/06 Q1009 RERA   
EGPU 122250Z AUTO 13035KT 6000 -RA BKN013/// BKN020/// 08/06 Q1009  
EGPU 122220Z AUTO 13035KT 5000 -RADZ BKN013/// BKN020/// 08/06 Q1009
EGPU 122150Z AUTO 13034G44KT 8000 BKN013/// BKN021/// 08/06 Q1009 RERA  
EGPU 122120Z AUTO 13032KT 6000 OVC010/// 08/06 Q1009 RERA   
EGPU 122050Z AUTO 13034KT 6000 OVC012/// 09/07 Q1009
EGPU 122020Z AUTO 13032KT 9000 OVC012/// 09/06 Q1009
EGPU 121950Z AUTO 13033G43KT 8000 OVC012/// 09/07 Q1009 
EGPU 121920Z AUTO 13035G45KT 9000 OVC012/// 09/06 Q1009 
EGPU 121850Z AUTO 13033G43KT 9999 OVC011/// 09/06 Q1009 
EGPU 121820Z AUTO 13032KT 8000 OVC010/// 09/07 Q1009
EGPU 121750Z 13029KT 8000 OVC010 09/07 Q1010
EGPU 121720Z 13028KT 9000 VCSH OVC011 09/07 Q1010   
EGPU 121650Z 14030KT 9999 VCSH OVC011 09/07 Q1010   
EGPU 121620Z 14034KT 8000 VCSH OVC011 09/07 Q1010   
EGPU 121550Z 14032KT 9000 VCSH BKN010 09/07 Q1010   
EGPU 121520Z 13032KT 9000 VCSH OVC009 09/07 Q1010   
EGPU 121450Z 13032KT 9000 -RA OVC009 09/07 Q1010
EGPU 121420Z 14031KT 7000 VCSH BKN007 09/08 Q1011   
EGPU 121350Z 13028KT 7000 -RA BKN006 09/08 Q1011
EGPU 121320Z 14026KT 4300 -RADZ BKN006 BKN013 09/08 Q1011   
EGPU 121250Z 14026KT 4000 -RA BKN005 SCT014 BKN018 09/08 Q1012  
EGPU 121220Z 15027KT 5000 RADZ BKN005 09/08 Q1012   
EGPU 121150Z 14027KT 3800 -RA BKN006 BKN013 09/08 Q1012 
EGPU 121120Z 14025KT 4300 -RA BKN006 BKN013 09/08 Q1012 
EGPU 121050Z 14027KT 5000 -RA BKN007 09/08 Q1013
EGPU 121020Z 14027KT 4700 RADZ BKN004 09/09 Q1013   
EGPU 120950Z 14022KT 3800 RADZ BKN004 09/09 Q1013   
EGPU 120920Z 14022KT 7000 -RA BKN005 BKN012 10/09 Q1013 
EGPU 120850Z 15022KT 7000 VCSH SCT007 BKN014 BKN030 10/09 Q1013